Time;durP1;ratioP1;P1;durP2;ratioP2;P2;SDS_P1;SDS_P2;PMS_P1;PMS_P2;Temp;Humidity;BMP_temperature;BMP_pressure;BME280_temperature;BME280_humidity;BME280_pressure;Samples;Min_cycle;Max_cycle;Signal;HPM_P1;HPM_P2
2022/11/04 00:00:34;;;;;;;13.20;6.95;;;;;;;9.66;100.00;100439.39;1677602;84;21059;-62
2022/11/04 00:03:04;;;;;;;11.33;6.75;;;;;;;9.65;100.00;100430.86;1677807;85;21059;-62
2022/11/04 00:05:34;;;;;;;10.68;6.70;;;;;;;9.65;100.00;100436.84;1678631;84;21309;-61
2022/11/04 00:13:44;;;;;;;11.45;7.25;;;;;;;9.68;100.00;100435.95;1677917;84;21691;-62
2022/11/04 00:19:01;;;;;;;;;;;;;;;9.70;100.00;100431.13;1679377;84;21051;-61
2022/11/04 00:29:58;;;;;;;12.98;7.08;;;;;;;9.66;100.00;100434.44;1677743;84;20524;-63
2022/11/04 00:35:17;;;;;;;9.93;5.97;;;;;;;9.65;100.00;100430.86;1678202;84;21525;-62
2022/11/04 00:37:47;;;;;;;10.90;6.45;;;;;;;9.64;100.00;100428.31;1677523;84;21089;-65
2022/11/04 00:40:18;;;;;;;11.28;6.15;;;;;;;9.62;100.00;100427.14;1668242;84;21550;-63
2022/11/04 00:42:48;;;;;;;15.30;6.50;;;;;;;9.61;100.00;100425.44;1678683;84;21091;-62
2022/11/04 00:45:17;;;;;;;12.73;6.05;;;;;;;9.60;100.00;100424.27;1677403;84;21448;-62
2022/11/04 00:47:46;;;;;;;11.75;5.72;;;;;;;9.60;100.00;100426.48;1678337;84;21019;-63
2022/11/04 00:50:16;;;;;;;11.68;5.70;;;;;;;9.60;100.00;100422.89;1678948;84;21030;-63
2022/11/04 00:52:46;;;;;;;10.30;5.92;;;;;;;9.61;100.00;100423.23;1677813;84;21100;-62
2022/11/04 00:55:16;;;;;;;10.32;5.70;;;;;;;9.60;100.00;100423.75;1677506;84;22043;-64
2022/11/04 00:57:45;;;;;;;9.13;5.53;;;;;;;9.59;100.00;100426.67;1679891;84;21498;-61
2022/11/04 01:00:15;;;;;;;10.28;6.17;;;;;;;9.57;100.00;100417.29;1687816;84;21072;-63
2022/11/04 01:02:46;;;;;;;11.12;6.35;;;;;;;9.56;100.00;100425.16;1667590;86;20999;-62
2022/11/04 01:05:16;;;;;;;10.08;5.65;;;;;;;9.57;100.00;100422.76;1685998;84;21495;-62
2022/11/04 01:07:46;;;;;;;9.95;5.72;;;;;;;9.58;100.00;100412.66;1669700;84;21103;-62
2022/11/04 01:10:17;;;;;;;9.08;5.62;;;;;;;9.59;100.00;100425.30;1683672;84;21083;-62
2022/11/04 01:12:47;;;;;;;13.55;6.50;;;;;;;9.58;100.00;100420.35;1660254;84;21108;-62
2022/11/04 01:15:16;;;;;;;15.68;6.60;;;;;;;9.58;100.00;100416.25;1684744;84;21062;-62
2022/11/04 01:17:46;;;;;;;11.57;6.05;;;;;;;9.58;100.00;100414.03;1685391;84;21623;-61
2022/11/04 01:20:16;;;;;;;11.33;6.60;;;;;;;9.57;100.00;100413.19;1695382;84;21090;-62
2022/11/04 01:22:45;;;;;;;10.40;5.62;;;;;;;9.56;100.00;100407.91;1674279;84;21025;-62
2022/11/04 01:25:14;;;;;;;11.33;5.55;;;;;;;9.52;100.00;100412.91;1685885;83;21047;-61
2022/11/04 01:27:44;;;;;;;17.07;6.10;;;;;;;9.50;100.00;100405.41;1671858;84;21078;-61
2022/11/04 01:30:13;;;;;;;11.10;5.72;;;;;;;9.47;100.00;100405.80;1684898;84;21111;-61
2022/11/04 01:32:41;;;;;;;11.33;5.70;;;;;;;9.47;100.00;100411.27;1685642;84;21032;-64
2022/11/04 01:35:10;;;;;;;10.63;6.08;;;;;;;9.45;100.00;100412.82;1683133;84;21004;-64
2022/11/04 01:37:40;;;;;;;9.48;5.50;;;;;;;9.45;100.00;100403.25;1696197;84;21050;-61
2022/11/04 01:40:10;;;;;;;7.75;5.25;;;;;;;9.44;100.00;100405.66;1686780;84;21555;-63
2022/11/04 01:42:40;;;;;;;9.35;5.05;;;;;;;9.41;100.00;100410.14;1694928;84;21034;-61
2022/11/04 01:45:13;;;;;;;10.90;5.78;;;;;;;9.39;100.00;100411.37;1674568;83;21079;-62
2022/11/04 01:47:56;;;;;;;13.50;5.70;;;;;;;9.39;100.00;100411.37;1724128;81;21527;-61
2022/11/04 01:50:28;;;;;;;11.08;5.10;;;;;;;9.38;100.00;100418.72;1710695;81;21082;-62
2022/11/04 01:53:08;;;;;;;9.68;5.20;;;;;;;9.40;100.00;100421.27;1741383;81;21101;-62
2022/11/04 01:55:47;;;;;;;13.13;5.95;;;;;;;9.39;100.00;100416.84;1730760;81;21058;-61
2022/11/04 01:58:17;;;;;;;14.70;5.78;;;;;;;9.38;100.00;100417.88;1727745;81;21063;-63
2022/11/04 02:00:46;;;;;;;9.15;5.35;;;;;;;9.38;100.00;100413.25;1700189;83;21076;-62
2022/11/04 02:03:23;;;;;;;9.80;4.90;;;;;;;9.38;100.00;100418.72;1723718;82;21016;-63
2022/11/04 02:05:52;;;;;;;8.00;4.87;;;;;;;9.39;100.00;100419.05;1670896;85;21061;-61
2022/11/04 02:08:22;;;;;;;11.48;5.83;;;;;;;9.39;100.00;100410.00;1663428;85;21072;-63
2022/11/04 02:12:48;;;;;;;9.85;6.00;;;;;;;9.36;100.00;100411.23;1686979;85;21047;-63
2022/11/04 02:13:44;;;;;;;12.05;5.72;;;;;;;9.36;100.00;100410.37;1654388;85;21117;-62
2022/11/04 02:16:37;;;;;;;10.30;5.20;;;;;;;9.34;100.00;100411.09;1650839;87;21069;-63
2022/11/04 02:19:51;;;;;;;11.45;5.42;;;;;;;9.33;100.00;100407.51;1634793;88;21113;-62
2022/11/04 02:22:34;;;;;;;12.63;5.80;;;;;;;9.32;100.00;100412.64;1630023;88;21049;-62
2022/11/04 02:25:32;;;;;;;11.80;5.70;;;;;;;9.33;100.00;100406.66;1629054;87;21114;-63
2022/11/04 02:28:19;;;;;;;7.28;4.20;;;;;;;9.31;100.00;100400.53;1621491;87;21047;-62
2022/11/04 02:30:58;;;;;;;12.95;5.83;;;;;;;9.28;100.00;100403.64;1648492;87;21498;-63
2022/11/04 02:33:39;;;;;;;9.70;5.35;;;;;;;9.27;100.00;100399.22;1622120;88;21102;-62
2022/11/04 02:36:29;;;;;;;10.43;5.28;;;;;;;9.23;100.00;100396.53;1619688;88;21548;-62
2022/11/04 02:39:04;;;;;;;11.55;5.60;;;;;;;9.23;100.00;100402.00;1627012;88;21067;-62
2022/11/04 02:41:47;;;;;;;11.78;5.62;;;;;;;9.24;100.00;100394.13;1647976;87;21105;-64
2022/11/04 02:44:39;;;;;;;14.35;5.87;;;;;;;9.23;100.00;100394.64;1648618;87;21545;-62
2022/11/04 02:47:18;;;;;;;8.70;5.35;;;;;;;9.21;100.00;100392.62;1622359;88;21062;-63
2022/11/04 02:49:52;;;;;;;8.30;4.45;;;;;;;9.20;100.00;100393.66;1648318;87;21073;-62
2022/11/04 02:52:42;;;;;;;10.50;5.60;;;;;;;9.19;100.00;100387.34;1622653;88;21045;-62
2022/11/04 02:55:19;;;;;;;9.58;4.90;;;;;;;9.20;100.00;100390.41;1647950;87;21050;-62
2022/11/04 02:57:49;;;;;;;12.03;5.55;;;;;;;9.23;100.00;100388.33;1648468;87;21049;-61
2022/11/04 03:00:20;;;;;;;10.50;5.60;;;;;;;9.24;100.00;100394.97;1622174;88;21067;-62
2022/11/04 03:03:02;;;;;;;10.18;5.10;;;;;;;9.26;100.00;100394.78;1628807;88;21499;-62
2022/11/04 03:05:36;;;;;;;10.85;5.60;;;;;;;9.23;100.00;100391.06;1623469;88;21523;-61
2022/11/04 03:08:13;;;;;;;9.85;5.00;;;;;;;9.23;100.00;100395.16;1625322;88;21086;-63
2022/11/04 03:10:44;;;;;;;9.75;5.87;;;;;;;9.21;100.00;100401.67;1650456;87;21646;-62
2022/11/04 03:13:26;;;;;;;10.82;4.70;;;;;;;9.23;100.00;100406.09;1658558;86;21047;-61
2022/11/04 03:16:01;;;;;;;10.13;5.42;;;;;;;9.28;100.00;100405.02;1662227;86;21038;-62
2022/11/04 03:19:00;;;;;;;;;;;;;;;9.28;100.00;100402.27;1653400;86;21023;-64
2022/11/04 03:21:33;;;;;;;11.40;5.62;;;;;;;9.26;100.00;100402.47;1650219;87;20576;-62
2022/11/04 03:24:03;;;;;;;9.70;5.42;;;;;;;9.24;100.00;100401.81;1644527;86;21082;-63
2022/11/04 03:26:56;;;;;;;10.50;5.70;;;;;;;9.21;100.00;100401.67;1654627;86;21034;-62
2022/11/04 03:29:35;;;;;;;8.65;5.55;;;;;;;9.23;100.00;100401.48;1645150;87;21013;-62
2022/11/04 03:32:41;;;;;;;13.15;5.40;;;;;;;9.25;100.00;100404.88;1649669;87;21091;-62
2022/11/04 03:35:10;;;;;;;11.85;5.60;;;;;;;9.23;100.00;100395.16;1650941;86;21026;-62
2022/11/04 03:37:40;;;;;;;11.85;5.50;;;;;;;9.21;100.00;100397.56;1636541;87;21068;-62
2022/11/04 03:40:11;;;;;;;11.97;5.80;;;;;;;9.24;100.00;100400.96;1659586;86;21018;-63
2022/11/04 03:42:48;;;;;;;14.05;6.42;;;;;;;9.24;100.00;100409.16;1659541;86;21089;-63
2022/11/04 03:45:18;;;;;;;14.15;8.35;;;;;;;9.20;100.00;100406.80;1649785;86;21030;-63
2022/11/04 03:47:48;;;;;;;13.15;7.42;;;;;;;9.20;100.00;100403.22;1655054;86;21123;-63
2022/11/04 03:50:30;;;;;;;10.80;6.53;;;;;;;9.20;100.00;100398.60;1659795;86;21086;-61
2022/11/04 03:52:58;;;;;;;13.22;7.47;;;;;;;9.21;100.00;100396.72;1651037;86;21094;-63
2022/11/04 03:55:44;;;;;;;21.02;10.90;;;;;;;9.20;100.00;100395.87;1654459;86;21073;-62
2022/11/04 03:58:46;;;;;;;20.52;10.53;;;;;;;9.18;100.00;100394.36;1625530;86;21562;-62
2022/11/04 04:01:42;;;;;;;13.65;8.05;;;;;;;9.16;100.00;100400.02;1661520;86;21010;-60
2022/11/04 04:04:34;;;;;;;13.80;6.00;;;;;;;9.17;100.00;100396.25;1651523;86;21018;-62
2022/11/04 04:07:14;;;;;;;12.98;6.35;;;;;;;9.18;100.00;100391.62;1655143;86;21031;-62
2022/11/04 04:13:47;;;;;;;12.33;6.03;;;;;;;9.16;100.00;100395.07;1654213;86;21115;-62
2022/11/04 04:16:27;;;;;;;12.23;5.42;;;;;;;9.13;100.00;100394.93;1650944;86;21034;-67
2022/11/04 04:19:22;;;;;;;15.70;5.25;;;;;;;9.09;100.00;100396.31;1654683;86;21027;-62
2022/11/04 04:21:57;;;;;;;14.75;6.17;;;;;;;9.07;100.00;100402.48;1658137;86;21066;-63
2022/11/04 04:27:31;;;;;;;10.60;5.42;;;;;;;9.06;100.00;100398.57;1652080;86;21158;-61
2022/11/04 04:30:13;;;;;;;12.03;5.80;;;;;;;9.06;100.00;100402.67;1661634;86;21031;-62
2022/11/04 04:32:46;;;;;;;11.60;5.97;;;;;;;9.04;100.00;100402.86;1653445;86;21097;-63
2022/11/04 04:47:08;;;;;;;11.73;6.12;;;;;;;8.98;100.00;100415.91;1647511;86;21511;-62
2022/11/04 04:49:37;;;;;;;13.05;6.10;;;;;;;8.95;100.00;100413.55;1654473;86;21102;-62
2022/11/04 04:52:07;;;;;;;9.68;6.20;;;;;;;8.96;100.00;100413.03;1659808;86;21043;-63
2022/11/04 04:54:36;;;;;;;11.55;6.60;;;;;;;8.97;100.00;100410.11;1654763;86;21105;-63
2022/11/04 04:57:05;;;;;;;13.10;6.87;;;;;;;8.96;100.00;100408.41;1662143;86;21063;-63
2022/11/04 04:59:33;;;;;;;12.65;5.95;;;;;;;8.92;99.93;100413.92;1656125;86;21082;-62
2022/11/04 05:02:02;;;;;;;13.30;6.40;;;;;;;8.90;99.85;100410.53;1647787;86;21493;-62
2022/11/04 05:04:38;;;;;;;15.40;6.97;;;;;;;8.88;99.86;100413.97;1656704;86;21023;-61
2022/11/04 05:07:14;;;;;;;10.80;6.30;;;;;;;8.88;99.93;100415.33;1641548;86;21093;-59
2022/11/04 05:09:49;;;;;;;12.88;6.97;;;;;;;8.86;99.90;100413.30;1660091;86;21435;-60
2022/11/04 05:12:24;;;;;;;12.88;6.83;;;;;;;8.86;99.90;100418.77;1647547;87;21039;-59
2022/11/04 05:15:01;;;;;;;12.65;6.30;;;;;;;8.84;100.00;100415.38;1626787;88;21076;-62
2022/11/04 05:17:37;;;;;;;12.13;6.55;;;;;;;8.85;100.00;100422.02;1608580;88;21058;-60
2022/11/04 05:20:13;;;;;;;10.10;6.33;;;;;;;8.85;100.00;100422.02;1595065;88;21586;-60
2022/11/04 05:22:49;;;;;;;13.63;7.07;;;;;;;8.88;100.00;100418.06;1637042;87;21801;-61
2022/11/04 05:25:24;;;;;;;9.50;6.40;;;;;;;8.92;100.00;100423.48;1630477;88;21018;-60
2022/11/04 05:28:02;;;;;;;13.85;7.40;;;;;;;8.93;100.00;100429.28;1595630;88;21213;-61
2022/11/04 05:30:38;;;;;;;12.28;6.80;;;;;;;8.94;100.00;100431.50;1636681;87;21428;-61
2022/11/04 05:33:13;;;;;;;10.18;5.90;;;;;;;8.95;100.00;100431.31;1618974;88;21137;-60
2022/11/04 05:35:48;;;;;;;11.45;6.85;;;;;;;8.94;100.00;100439.18;1608035;88;21086;-60
2022/11/04 05:38:23;;;;;;;12.75;7.05;;;;;;;8.90;99.81;100441.44;1626896;87;21048;-60
2022/11/04 05:40:59;;;;;;;13.18;7.15;;;;;;;8.89;99.91;100441.62;1594341;89;21054;-62
2022/11/04 05:43:35;;;;;;;10.05;6.20;;;;;;;8.90;99.88;100446.05;1621410;88;21053;-59
2022/11/04 05:46:10;;;;;;;10.63;6.33;;;;;;;8.90;99.96;100446.90;1621187;88;21098;-60
2022/11/04 05:48:46;;;;;;;13.43;6.42;;;;;;;8.94;100.00;100454.72;1620464;88;21062;-60
2022/11/04 05:51:21;;;;;;;12.75;7.12;;;;;;;8.96;100.00;100452.14;1637941;87;21111;-60
2022/11/04 05:53:55;;;;;;;11.73;6.95;;;;;;;8.99;100.00;100452.28;1636797;87;21025;-60
2022/11/04 05:56:30;;;;;;;10.90;6.22;;;;;;;9.01;99.88;100454.31;1611806;88;21079;-60
2022/11/04 05:59:26;;;;;;;11.85;6.17;;;;;;;8.98;99.66;100450.58;1626632;88;21525;-60
2022/11/04 06:02:02;;;;;;;12.78;7.30;;;;;;;8.95;99.42;100458.64;1627218;87;21125;-59
2022/11/04 06:04:40;;;;;;;11.88;6.62;;;;;;;8.90;99.35;100457.83;1628308;87;21081;-58
2022/11/04 06:07:16;;;;;;;11.83;6.55;;;;;;;8.92;99.44;100460.37;1616218;87;21077;-63
2022/11/04 06:10:12;;;;;;;13.03;7.63;;;;;;;8.93;99.09;100465.33;1673587;85;21067;-58
2022/11/04 06:12:47;;;;;;;14.05;7.33;;;;;;;8.91;99.15;100457.31;1671089;84;21463;-61
2022/11/04 06:15:24;;;;;;;11.83;6.83;;;;;;;8.94;99.08;100462.92;1724480;82;21456;-58
2022/11/04 06:18:00;;;;;;;14.07;7.17;;;;;;;8.95;99.01;100465.98;1700244;84;21511;-58
2022/11/04 06:20:31;;;;;;;11.63;7.12;;;;;;;8.95;98.85;100465.47;1700350;83;21101;-59
2022/11/04 06:23:05;;;;;;;16.10;8.33;;;;;;;8.98;98.74;100461.00;1700112;83;21086;-58
2022/11/04 06:25:40;;;;;;;12.60;8.03;;;;;;;8.98;98.71;100454.69;1700369;83;21046;-59
2022/11/04 06:28:19;;;;;;;11.45;6.95;;;;;;;9.01;98.72;100460.63;1676701;84;21062;-59
2022/11/04 06:30:57;;;;;;;14.53;7.15;;;;;;;9.03;98.09;100460.44;1691356;84;21018;-58
2022/11/04 06:33:32;;;;;;;11.83;7.53;;;;;;;9.02;98.08;100462.33;1675678;84;21408;-59
2022/11/04 06:36:10;;;;;;;11.55;6.60;;;;;;;9.03;98.01;100459.92;1700457;84;21018;-59
2022/11/04 06:38:46;;;;;;;13.53;8.13;;;;;;;9.05;97.99;100460.59;1687354;84;21106;-60
2022/11/04 06:41:23;;;;;;;14.07;8.70;;;;;;;9.07;98.04;100460.39;1699805;84;21030;-59
2022/11/04 06:44:00;;;;;;;12.63;7.90;;;;;;;9.10;98.01;100465.49;1687962;84;21005;-60
2022/11/04 06:46:40;;;;;;;12.70;7.30;;;;;;;9.14;98.02;100468.22;1682702;84;21035;-60
2022/11/04 06:49:19;;;;;;;15.00;8.80;;;;;;;9.17;97.87;100469.20;1726670;82;21041;-58
2022/11/04 06:51:55;;;;;;;14.90;8.70;;;;;;;9.13;97.30;100463.27;1724221;82;21077;-58
2022/11/04 06:54:31;;;;;;;19.10;9.25;;;;;;;9.10;97.36;100468.23;1731164;82;21025;-58
2022/11/04 06:57:07;;;;;;;15.85;9.00;;;;;;;9.13;97.54;100463.78;1730293;82;21057;-59
2022/11/04 06:59:42;;;;;;;15.65;8.95;;;;;;;9.16;97.63;100469.73;1708413;83;21002;-59
2022/11/04 07:02:19;;;;;;;18.40;9.63;;;;;;;9.21;97.70;100455.49;1711960;83;21088;-59
2022/11/04 07:04:58;;;;;;;15.00;9.13;;;;;;;9.25;97.78;100460.07;1634914;87;21947;-58
2022/11/04 07:07:34;;;;;;;;;;;;;;;9.28;97.71;100459.69;1634470;87;21079;-60
2022/11/04 07:10:10;;;;;;;16.75;8.83;;;;;;;9.31;97.75;100457.95;1622445;87;20165;-59
2022/11/04 07:12:51;;;;;;;14.18;8.18;;;;;;;9.34;97.64;100454.84;1671084;85;21096;-58
2022/11/04 07:15:31;;;;;;;15.00;8.20;;;;;;;9.36;97.42;100463.70;1587523;88;21081;-59
2022/11/04 07:18:08;;;;;;;16.55;9.05;;;;;;;9.39;97.34;100463.33;1644921;86;21701;-58
2022/11/04 07:20:43;;;;;;;17.23;9.10;;;;;;;9.41;97.21;100466.72;1662834;86;21500;-59
2022/11/04 07:23:18;;;;;;;14.55;8.43;;;;;;;9.43;97.08;100461.91;1655570;85;21088;-58
2022/11/04 07:25:54;;;;;;;17.77;8.95;;;;;;;9.45;97.01;100466.67;1642674;87;21066;-58
2022/11/04 07:28:44;;;;;;;23.27;11.18;;;;;;;9.47;96.87;100459.12;1681458;81;21069;-63
2022/11/04 07:31:16;;;;;;;18.25;8.35;;;;;;;9.50;96.81;100456.86;1710094;82;21482;-61
2022/11/04 07:33:48;;;;;;;18.52;9.55;;;;;;;9.55;96.72;100461.77;1720528;82;21034;-64
2022/11/04 07:36:17;;;;;;;17.67;9.40;;;;;;;9.57;96.55;100467.89;1732054;82;20981;-63
2022/11/04 07:38:46;;;;;;;17.40;8.88;;;;;;;9.61;96.61;100462.38;1750151;81;21043;-63
2022/11/04 07:41:15;;;;;;;20.50;9.35;;;;;;;9.64;96.29;100460.63;1678084;84;21047;-63
2022/11/04 07:43:50;;;;;;;20.52;10.03;;;;;;;9.65;95.96;100463.69;1728100;82;21037;-61
2022/11/04 07:46:19;;;;;;;17.35;9.88;;;;;;;9.67;96.04;100465.72;1709118;82;21061;-61
2022/11/04 07:48:49;;;;;;;16.80;9.73;;;;;;;9.70;96.07;100454.91;1720527;82;21042;-62
2022/11/04 07:51:19;;;;;;;19.42;9.48;;;;;;;9.73;95.99;100464.11;1713130;82;21403;-62
2022/11/04 07:53:49;;;;;;;18.70;9.25;;;;;;;9.77;95.96;100460.83;1734145;82;21094;-62
2022/11/04 07:56:19;;;;;;;19.87;9.53;;;;;;;9.82;95.91;100460.25;1733984;82;21043;-62
2022/11/04 07:58:49;;;;;;;22.35;10.30;;;;;;;9.85;95.85;100457.98;1733849;82;21013;-62
2022/11/04 08:01:25;;;;;;;24.02;10.08;;;;;;;9.88;95.73;100449.91;1724553;82;21056;-62
2022/11/04 08:03:54;;;;;;;19.67;9.30;;;;;;;9.91;95.64;100448.67;1751625;81;21021;-62
2022/11/04 08:06:23;;;;;;;21.52;9.80;;;;;;;9.94;95.60;100437.34;1696867;83;21130;-64
2022/11/04 08:08:52;;;;;;;19.12;10.18;;;;;;;10.00;95.47;100446.15;1734845;82;20989;-62
2022/11/04 08:11:27;;;;;;;15.88;9.28;;;;;;;10.02;95.32;100447.66;1708019;82;21064;-63
2022/11/04 08:13:54;;;;;;;15.32;8.83;;;;;;;10.09;95.26;100450.47;1724804;83;21014;-63
2022/11/04 08:16:25;;;;;;;13.58;8.05;;;;;;;10.12;94.74;100449.55;1720894;83;21157;-62
2022/11/04 08:19:00;;;;;;;16.23;9.05;;;;;;;10.15;94.40;100457.91;1759010;81;21010;-61
2022/11/04 08:21:27;;;;;;;17.65;9.85;;;;;;;10.16;94.05;100453.60;1758311;81;21038;-62
2022/11/04 08:23:58;;;;;;;19.98;10.03;;;;;;;10.15;93.81;100451.91;1703042;81;21492;-61
2022/11/04 08:26:28;;;;;;;17.75;8.85;;;;;;;10.15;93.65;100460.64;1718577;82;21010;-63
2022/11/04 08:28:58;;;;;;;20.95;9.58;;;;;;;10.16;93.57;100450.87;1717055;83;21101;-62
2022/11/04 08:31:29;;;;;;;17.70;9.95;;;;;;;10.18;93.45;100454.78;1707669;83;21077;-63
2022/11/04 08:33:59;;;;;;;15.58;8.80;;;;;;;10.17;93.03;100461.30;1684530;84;21067;-62
2022/11/04 08:36:33;;;;;;;18.50;9.80;;;;;;;10.18;93.00;100461.10;1759365;81;21014;-62
2022/11/04 08:39:05;;;;;;;15.88;9.10;;;;;;;10.19;92.88;100453.73;1759495;81;21066;-62
2022/11/04 08:41:36;;;;;;;21.82;11.00;;;;;;;10.21;92.83;100454.42;1759086;81;21050;-64
2022/11/04 08:44:06;;;;;;;17.12;9.10;;;;;;;10.23;92.61;100454.23;1714008;83;21086;-62
2022/11/04 08:46:38;;;;;;;16.70;8.95;;;;;;;10.24;92.40;100450.45;1717519;83;21025;-72
2022/11/04 08:49:09;;;;;;;19.45;9.38;;;;;;;10.25;92.41;100454.36;1712902;83;21025;-64
2022/11/04 08:51:43;;;;;;;20.85;9.78;;;;;;;10.27;92.10;100449.54;1720831;82;21081;-63
2022/11/04 08:54:12;;;;;;;17.40;9.98;;;;;;;10.28;91.95;100449.87;1715271;83;21053;-64
2022/11/04 08:56:44;;;;;;;15.70;10.55;;;;;;;10.33;91.71;100446.02;1715311;82;21045;-63
2022/11/04 08:59:18;;;;;;;29.63;14.10;;;;;;;10.36;91.51;100448.37;1707209;83;21147;-65
2022/11/04 09:01:48;;;;;;;22.50;14.50;;;;;;;10.39;91.42;100454.83;1713599;83;21082;-64
2022/11/04 09:04:18;;;;;;;22.35;12.60;;;;;;;10.42;91.43;100455.84;1708085;83;21443;-65
2022/11/04 09:06:49;;;;;;;21.05;12.00;;;;;;;10.44;91.46;100452.38;1726667;83;21445;-63
2022/11/04 09:09:18;;;;;;;23.45;12.15;;;;;;;10.45;91.42;100454.59;1714920;83;21025;-64
2022/11/04 09:11:47;;;;;;;27.48;13.78;;;;;;;10.43;91.10;100450.69;1702931;83;21510;-64
2022/11/04 09:14:17;;;;;;;25.00;13.30;;;;;;;10.40;91.18;100452.45;1719401;83;21021;-64
2022/11/04 09:16:48;;;;;;;22.77;11.33;;;;;;;10.37;90.92;100454.17;1704931;83;21030;-65
2022/11/04 09:19:19;;;;;;;14.87;10.25;;;;;;;10.34;90.92;100453.72;1700063;83;21090;-65
2022/11/04 09:21:48;;;;;;;20.17;11.18;;;;;;;10.35;91.00;100462.26;1712849;83;21054;-63
2022/11/04 09:24:19;;;;;;;21.73;11.08;;;;;;;10.34;90.98;100453.72;1708181;83;21076;-63
2022/11/04 09:26:50;;;;;;;23.55;12.58;;;;;;;10.32;90.97;100448.43;1703035;83;20981;-64
2022/11/04 09:29:21;;;;;;;32.98;13.40;;;;;;;10.29;90.73;100451.56;1706694;83;21053;-64
2022/11/04 09:31:55;;;;;;;28.35;13.35;;;;;;;10.27;90.80;100446.80;1728308;82;21121;-65
2022/11/04 09:34:29;;;;;;;24.32;12.33;;;;;;;10.29;90.92;100451.56;1740444;81;21049;-65
2022/11/04 09:37:05;;;;;;;25.35;11.55;;;;;;;10.30;91.02;100446.41;1746603;81;21015;-64
2022/11/04 09:39:37;;;;;;;19.50;11.48;;;;;;;10.28;90.84;100451.23;1730619;80;21097;-63
2022/11/04 09:42:20;;;;;;;18.25;9.48;;;;;;;10.24;90.75;100444.45;1733046;81;21021;-64
2022/11/04 09:44:59;;;;;;;19.27;9.98;;;;;;;10.23;90.80;100449.60;1736387;81;21025;-66
2022/11/04 09:47:32;;;;;;;24.12;11.48;;;;;;;10.21;90.70;100450.31;1738886;81;21122;-64
2022/11/04 09:50:01;;;;;;;23.22;11.68;;;;;;;10.17;90.71;100444.34;1731295;81;21556;-66
2022/11/04 09:52:36;;;;;;;19.98;10.03;;;;;;;10.16;90.86;100453.60;1731636;81;21504;-64
2022/11/04 09:55:40;;;;;;;17.92;8.85;;;;;;;10.15;90.81;100452.43;1764810;81;21025;-64
2022/11/04 09:58:12;;;;;;;11.57;7.53;;;;;;;10.13;90.64;100449.03;1765135;81;21069;-62
2022/11/04 10:00:45;;;;;;;11.75;7.53;;;;;;;10.10;90.75;100442.58;1753227;81;21435;-64
2022/11/04 10:03:30;;;;;;;16.23;7.95;;;;;;;10.09;90.73;100444.99;1759235;81;21450;-63
2022/11/04 10:06:36;;;;;;;14.20;8.15;;;;;;;10.06;90.38;100447.59;1763592;81;21006;-64
2022/11/04 10:09:22;;;;;;;12.20;7.37;;;;;;;10.01;90.34;100451.95;1743463;81;21093;-64
2022/11/04 10:12:04;;;;;;;14.38;8.03;;;;;;;9.99;90.45;100443.94;1729310;81;21486;-64
2022/11/04 10:14:49;;;;;;;13.85;8.63;;;;;;;9.97;90.48;100447.91;1726818;82;21003;-64
2022/11/04 10:18:01;;;;;;;14.68;8.28;;;;;;;9.98;90.84;100441.39;1731199;82;21061;-63
2022/11/04 10:20:36;;;;;;;16.30;7.62;;;;;;;9.99;90.71;100440.34;1655090;86;21093;-64
2022/11/04 10:23:44;;;;;;;17.52;8.70;;;;;;;9.96;90.24;100444.32;1678594;85;21056;-68
2022/11/04 10:26:31;;;;;;;14.35;8.75;;;;;;;9.91;90.14;100441.83;1683748;84;21061;-64
2022/11/04 10:29:05;;;;;;;17.40;8.35;;;;;;;9.87;90.23;100440.52;1741917;81;21096;-67
2022/11/04 10:31:35;;;;;;;15.18;8.58;;;;;;;9.85;90.51;100429.77;1715203;81;21067;-63
2022/11/04 10:34:13;;;;;;;12.65;9.03;;;;;;;9.85;90.63;100433.34;1711567;82;21504;-66
2022/11/04 10:36:43;;;;;;;15.65;10.05;;;;;;;9.82;90.74;100431.00;1725135;81;21056;-64
2022/11/04 10:39:17;;;;;;;14.23;9.60;;;;;;;9.80;90.80;100434.45;1733925;81;21057;-63
2022/11/04 10:41:46;;;;;;;17.57;11.15;;;;;;;9.79;91.01;100434.64;1726632;82;20979;-64
2022/11/04 10:44:27;;;;;;;17.40;10.40;;;;;;;9.78;91.01;100433.80;1748315;82;21034;-64
2022/11/04 10:47:09;;;;;;;16.67;9.13;;;;;;;9.76;91.04;100427.66;1745430;81;21097;-64
2022/11/04 10:49:54;;;;;;;18.62;9.43;;;;;;;9.77;91.12;100422.52;1748038;82;21414;-64
2022/11/04 10:52:26;;;;;;;13.53;8.98;;;;;;;9.77;91.14;100418.94;1736902;81;21040;-64
2022/11/04 10:54:56;;;;;;;17.40;9.73;;;;;;;9.79;91.25;100426.43;1745036;81;21033;-63
2022/11/04 10:57:26;;;;;;;17.35;9.00;;;;;;;9.81;91.39;100416.14;1747088;81;21030;-65
2022/11/04 10:59:59;;;;;;;13.03;8.40;;;;;;;9.85;91.31;100416.93;1743305;82;21029;-65
2022/11/04 11:02:48;;;;;;;14.15;8.93;;;;;;;9.89;91.26;100411.92;1735730;82;21063;-66
2022/11/04 11:05:22;;;;;;;16.55;8.73;;;;;;;9.91;91.13;100411.73;1740576;82;21008;-66
2022/11/04 11:07:54;;;;;;;16.97;9.43;;;;;;;9.93;90.96;100406.91;1763896;81;21008;-64
2022/11/04 11:10:31;;;;;;;15.90;8.50;;;;;;;9.93;90.84;100406.39;1763839;81;20982;-63
2022/11/04 11:13:06;;;;;;;15.30;8.73;;;;;;;9.96;90.51;100409.26;1746356;81;20998;-64
2022/11/04 11:15:38;;;;;;;17.52;9.93;;;;;;;9.98;90.48;100407.17;1763816;81;21507;-65
2022/11/04 11:18:16;;;;;;;16.55;9.73;;;;;;;9.99;90.41;100404.24;1730252;82;21035;-65
2022/11/04 11:20:53;;;;;;;21.77;10.05;;;;;;;9.99;90.21;100399.29;1762018;81;21033;-65
2022/11/04 11:23:38;;;;;;;14.73;9.75;;;;;;;9.98;89.98;100401.18;1750628;81;21072;-65
2022/11/04 11:26:15;;;;;;;14.80;9.78;;;;;;;9.98;89.76;100398.44;1735538;81;21046;-63
2022/11/04 11:28:58;;;;;;;16.07;9.38;;;;;;;10.02;89.91;100394.80;1722857;81;21014;-63
2022/11/04 11:34:26;;;;;;;17.25;10.28;;;;;;;10.07;90.01;100401.91;1739388;81;21019;-64
2022/11/04 11:36:55;;;;;;;13.62;8.95;;;;;;;10.11;89.90;100397.73;1737262;81;21033;-65
2022/11/04 11:39:35;;;;;;;18.17;9.63;;;;;;;10.13;89.71;100398.38;1728530;80;21089;-64
2022/11/04 11:42:14;;;;;;;17.10;9.63;;;;;;;10.15;89.59;100401.25;1728225;81;21097;-63
2022/11/04 11:44:50;;;;;;;17.87;10.43;;;;;;;10.14;89.26;100396.82;1712864;83;21043;-65
2022/11/04 11:47:30;;;;;;;16.67;9.23;;;;;;;10.15;89.22;100403.99;1744651;81;21088;-68
2022/11/04 11:50:18;;;;;;;15.45;8.98;;;;;;;10.16;88.92;100394.73;1745064;81;21500;-63
2022/11/04 11:52:48;;;;;;;15.63;9.00;;;;;;;10.19;88.88;100393.50;1742148;80;20974;-64
2022/11/04 11:55:32;;;;;;;14.30;8.38;;;;;;;10.19;88.55;100403.08;1744749;81;21097;-66
2022/11/04 11:58:21;;;;;;;14.50;8.48;;;;;;;10.18;88.27;100392.66;1717788;81;21492;-64
2022/11/04 12:01:15;;;;;;;15.68;7.90;;;;;;;10.17;87.89;100395.58;1715440;81;22305;-66
2022/11/04 12:03:46;;;;;;;10.45;7.53;;;;;;;10.14;87.49;100385.87;1703437;81;21487;-66
2022/11/04 12:06:38;;;;;;;13.65;8.70;;;;;;;10.13;87.12;100382.81;1736501;81;21042;-63
2022/11/04 12:09:42;;;;;;;17.02;9.53;;;;;;;10.12;86.78;100380.27;1728712;81;21085;-65
2022/11/04 12:12:26;;;;;;;14.65;8.40;;;;;;;10.11;86.62;100384.05;1738573;81;21017;-65
2022/11/04 12:15:26;;;;;;;14.78;8.43;;;;;;;10.11;86.50;100378.57;1685464;83;21528;-64
2022/11/04 12:18:30;;;;;;;11.38;6.95;;;;;;;10.11;86.41;100379.42;1723568;81;21102;-65
2022/11/04 12:21:32;;;;;;;12.37;8.60;;;;;;;10.13;85.89;100379.22;1722057;82;21069;-65
2022/11/04 12:24:15;;;;;;;14.70;7.95;;;;;;;10.16;85.87;100373.36;1725406;80;21159;-64
2022/11/04 12:26:53;;;;;;;15.15;8.83;;;;;;;10.20;85.82;100374.69;1719476;80;21021;-67
2022/11/04 12:29:44;;;;;;;13.93;9.03;;;;;;;10.17;85.10;100375.90;1739859;81;21078;-64
2022/11/04 12:32:28;;;;;;;15.18;8.15;;;;;;;10.20;85.00;100372.44;1726768;81;21517;-64
2022/11/04 12:35:09;;;;;;;14.78;9.78;;;;;;;10.22;85.19;100379.97;1731015;83;21022;-66
2022/11/04 12:37:53;;;;;;;15.88;9.68;;;;;;;10.22;85.38;100379.45;1733815;81;21316;-65
2022/11/04 12:40:54;;;;;;;16.45;10.20;;;;;;;10.23;85.71;100377.56;1733281;83;21058;-64
2022/11/04 12:43:34;;;;;;;19.15;9.88;;;;;;;10.19;85.86;100374.33;1731227;82;21069;-66